createdAt,value
2018-02-19T00:01:28.603Z,15.13
2018-02-19T00:03:56.748Z,13.83
2018-02-19T00:06:26.606Z,15.30
2018-02-19T00:08:54.748Z,14.90
2018-02-19T00:11:22.929Z,15.73
2018-02-19T00:13:51.066Z,13.73
2018-02-19T00:16:24.004Z,13.17
2018-02-19T00:18:52.142Z,13.93
2018-02-19T00:21:20.305Z,15.03
2018-02-19T00:23:49.213Z,14.63
2018-02-19T00:26:34.276Z,13.93
2018-02-19T00:29:02.417Z,14.30
2018-02-19T00:31:30.577Z,14.00
2018-02-19T00:33:58.714Z,15.10
2018-02-19T00:36:28.780Z,13.87
2018-02-19T00:38:56.917Z,13.03
2018-02-19T00:41:25.076Z,12.13
2018-02-19T00:43:53.225Z,13.40
2018-02-19T00:46:22.137Z,13.23
2018-02-19T00:48:50.278Z,13.07
2018-02-19T00:51:19.208Z,14.00
2018-02-19T00:53:47.353Z,13.93
2018-02-19T00:56:16.273Z,15.23
2018-02-19T00:58:44.412Z,14.20
2018-02-19T01:01:13.324Z,15.43
2018-02-19T01:03:41.464Z,13.67
2018-02-19T01:06:10.392Z,14.50
2018-02-19T01:08:38.526Z,13.57
2018-02-19T01:11:07.449Z,15.50
2018-02-19T01:13:35.584Z,14.27
2018-02-19T01:16:03.737Z,12.80
2018-02-19T01:18:31.879Z,13.60
2018-02-19T01:21:00.022Z,11.47
2018-02-19T01:23:28.184Z,12.63
2018-02-19T01:25:59.077Z,11.70
2018-02-19T01:28:27.236Z,12.83
2018-02-19T01:30:55.380Z,14.13
2018-02-19T01:33:24.299Z,14.70
2018-02-19T01:35:52.437Z,16.27
2018-02-19T01:38:21.363Z,15.03
2018-02-19T01:40:49.517Z,14.87
2018-02-19T01:43:17.673Z,15.07
2018-02-19T01:45:54.998Z,15.57
2018-02-19T01:48:23.152Z,14.80
2018-02-19T01:50:51.296Z,13.33
2018-02-19T01:53:19.452Z,14.53
2018-02-19T01:55:54.962Z,13.70
2018-02-19T01:58:23.116Z,13.40
2018-02-19T02:00:51.270Z,13.03
2018-02-19T02:03:20.199Z,12.33
2018-02-19T02:06:05.446Z,13.27
2018-02-19T02:08:34.386Z,13.80
2018-02-19T02:11:02.521Z,12.87
2018-02-19T02:13:30.688Z,13.33
2018-02-19T02:16:00.829Z,12.53
2018-02-19T02:18:28.989Z,13.27
2018-02-19T02:20:57.125Z,13.03
2018-02-19T02:23:25.281Z,13.40
2018-02-19T02:25:53.421Z,13.63
2018-02-19T02:28:21.581Z,13.57
2018-02-19T02:30:49.724Z,15.50
2018-02-19T02:33:18.650Z,13.20
2018-02-19T02:35:49.934Z,14.37
2018-02-19T02:38:18.093Z,13.87
2018-02-19T02:40:46.230Z,13.77
2018-02-19T02:43:14.398Z,14.10
2018-02-19T02:45:50.171Z,14.43
2018-02-19T02:48:18.324Z,14.13
2018-02-19T02:50:46.467Z,14.33
2018-02-19T02:53:14.629Z,15.53
2018-02-19T02:55:46.753Z,14.47
2018-02-19T02:58:14.910Z,14.20
2018-02-19T03:00:43.079Z,14.57
2018-02-19T03:03:11.275Z,13.57
2018-02-19T03:05:40.453Z,13.83
2018-02-19T03:08:08.693Z,14.00
2018-02-19T03:10:36.858Z,13.00
2018-02-19T03:13:05.125Z,12.33
2018-02-19T03:15:33.281Z,13.50
2018-02-19T03:18:01.445Z,13.87
2018-02-19T03:20:29.574Z,15.47
2018-02-19T03:22:57.733Z,14.47
2018-02-19T03:25:29.042Z,14.57
2018-02-19T03:27:57.207Z,14.73
2018-02-19T03:30:25.342Z,16.13
2018-02-19T03:32:54.280Z,16.53
2018-02-19T03:35:24.397Z,15.20
2018-02-19T03:37:52.551Z,14.60
2018-02-19T03:40:20.701Z,14.90
2018-02-19T03:42:49.635Z,14.67
2018-02-19T03:45:17.773Z,14.50
2018-02-19T03:47:46.677Z,14.27
2018-02-19T03:50:14.885Z,14.10
2018-02-19T03:52:43.016Z,14.27
2018-02-19T03:55:15.433Z,14.27
2018-02-19T03:57:43.565Z,14.30
2018-02-19T04:00:11.724Z,16.77
2018-02-19T04:02:39.886Z,14.63
2018-02-19T04:05:13.362Z,13.27
2018-02-19T04:07:41.496Z,14.30
2018-02-19T04:10:09.682Z,14.17
2018-02-19T04:12:37.811Z,14.13
2018-02-19T04:15:05.968Z,13.77
2018-02-19T04:17:34.100Z,14.57
2018-02-19T04:20:02.290Z,13.47
2018-02-19T04:22:30.400Z,12.93
2018-02-19T04:25:00.276Z,14.73
2018-02-19T04:27:28.416Z,13.87
2018-02-19T04:29:56.555Z,13.80
2018-02-19T04:32:25.492Z,13.83
2018-02-19T04:34:55.616Z,13.60
2018-02-19T04:37:23.773Z,13.30
2018-02-19T04:39:51.917Z,12.73
2018-02-19T04:42:20.845Z,14.23
2018-02-19T04:47:54.885Z,13.53
2018-02-19T04:50:23.021Z,12.87
2018-02-19T04:52:51.947Z,12.03
2018-02-19T04:55:21.045Z,12.10
2018-02-19T04:57:49.217Z,12.67
2018-02-19T05:00:17.352Z,12.33
2018-02-19T05:02:46.274Z,12.40
2018-02-19T05:05:17.418Z,12.17
2018-02-19T05:07:45.579Z,13.10
2018-02-19T05:10:13.720Z,13.03
2018-02-19T05:12:41.883Z,13.07
2018-02-19T05:15:10.017Z,13.67
2018-02-19T05:17:38.209Z,12.63
2018-02-19T05:20:06.349Z,13.03
2018-02-19T05:22:34.489Z,13.13
2018-02-19T05:25:04.369Z,13.30
2018-02-19T05:27:32.515Z,12.00
2018-02-19T05:30:00.705Z,12.40
2018-02-19T05:32:28.849Z,13.47
2018-02-19T05:34:57.014Z,13.87
2018-02-19T05:37:25.920Z,14.50
2018-02-19T05:39:54.080Z,14.23
2018-02-19T05:42:22.217Z,13.40
2018-02-19T05:44:53.944Z,13.40
2018-02-19T05:47:22.080Z,13.60
2018-02-19T05:49:51.004Z,13.13
2018-02-19T05:52:19.141Z,10.97
2018-02-19T05:54:47.297Z,13.43
2018-02-19T05:57:15.437Z,11.70
2018-02-19T05:59:43.622Z,13.33
2018-02-19T06:02:11.744Z,13.33
2018-02-19T06:04:39.904Z,13.00
2018-02-19T06:07:08.801Z,12.60
2018-02-19T06:09:36.949Z,13.73
2018-02-19T06:12:05.078Z,13.37
2018-02-19T06:14:33.244Z,14.57
2018-02-19T06:17:01.397Z,13.80
2018-02-19T06:19:29.538Z,12.90
2018-02-19T06:21:57.709Z,13.30
2018-02-19T06:24:25.844Z,13.37
2018-02-19T06:26:54.972Z,14.40
2018-02-19T06:29:23.108Z,15.23
2018-02-19T06:31:51.268Z,13.60
2018-02-19T06:34:19.407Z,13.33
2018-02-19T06:36:48.332Z,13.03
2018-02-19T06:39:16.460Z,15.23
2018-02-19T06:41:44.613Z,12.83
2018-02-19T06:44:12.749Z,14.47
2018-02-19T06:46:40.904Z,15.40
2018-02-19T06:49:09.804Z,14.67
2018-02-19T06:51:37.969Z,14.10
2018-02-19T06:54:06.878Z,14.07
2018-02-19T06:56:43.481Z,12.37
2018-02-19T06:59:11.617Z,13.10
2018-02-19T07:01:39.789Z,13.20
2018-02-19T07:04:07.932Z,14.77
2018-02-19T07:06:51.085Z,19.27
2018-02-19T07:09:19.219Z,19.30
2018-02-19T07:11:47.393Z,17.87
2018-02-19T07:14:15.520Z,17.47
2018-02-19T07:16:43.652Z,18.70
2018-02-19T07:19:12.569Z,19.50
2018-02-19T07:21:40.692Z,20.63
2018-02-19T07:24:08.849Z,20.03
2018-02-19T07:26:37.033Z,19.67
2018-02-19T07:29:05.214Z,18.00
2018-02-19T07:31:33.365Z,17.40
2018-02-19T07:34:01.602Z,17.97
2018-02-19T07:36:32.971Z,16.57
2018-02-19T07:39:01.124Z,16.03
2018-02-19T07:41:29.264Z,16.10
2018-02-19T07:43:57.460Z,16.43
2018-02-19T07:46:30.071Z,16.63
2018-02-19T07:48:58.220Z,16.67
2018-02-19T07:51:26.365Z,17.27
2018-02-19T07:53:54.521Z,17.10
2018-02-19T07:56:31.059Z,17.13
2018-02-19T07:58:59.217Z,16.47
2018-02-19T08:01:27.365Z,16.13
2018-02-19T08:03:56.286Z,17.67
2018-02-19T08:06:31.944Z,15.97
2018-02-19T08:09:00.096Z,16.47
2018-02-19T08:11:28.237Z,14.33
2018-02-19T08:13:56.392Z,16.33
2018-02-19T08:16:35.797Z,14.10
2018-02-19T08:19:03.952Z,15.20
2018-02-19T08:21:32.092Z,15.57
2018-02-19T08:24:00.257Z,16.37
2018-02-19T08:26:35.912Z,15.17
2018-02-19T08:29:04.072Z,18.63
2018-02-19T08:31:32.219Z,15.50
2018-02-19T08:34:00.381Z,13.60
2018-02-19T08:36:28.581Z,12.93
2018-02-19T08:38:56.910Z,13.73
2018-02-19T08:41:25.862Z,15.20
2018-02-19T08:43:53.973Z,15.13
2018-02-19T08:46:27.409Z,13.63
2018-02-19T08:48:55.594Z,16.00
2018-02-19T08:51:23.721Z,14.53
2018-02-19T08:53:51.864Z,12.03
2018-02-19T08:56:24.003Z,11.43
2018-02-19T08:58:52.140Z,11.60
2018-02-19T09:01:20.297Z,11.00
2018-02-19T09:03:49.198Z,9.97
2018-02-19T09:06:17.344Z,10.40
2018-02-19T09:08:45.478Z,9.63
2018-02-19T09:11:13.624Z,9.70
2018-02-19T09:13:41.749Z,9.93
2018-02-19T09:16:09.897Z,10.67
2018-02-19T09:18:38.025Z,11.93
2018-02-19T09:21:06.936Z,10.13
2018-02-19T09:23:35.069Z,9.97
2018-02-19T09:26:15.901Z,10.67
2018-02-19T09:28:44.029Z,10.70
2018-02-19T09:31:12.948Z,10.20
2018-02-19T09:33:41.745Z,10.30
2018-02-19T09:36:09.907Z,11.17
2018-02-19T09:38:38.049Z,11.70
2018-02-19T09:41:06.177Z,11.23
2018-02-19T09:43:34.329Z,12.03
2018-02-19T09:46:03.424Z,12.83
2018-02-19T09:48:32.337Z,10.83
2018-02-19T09:51:00.461Z,11.40
2018-02-19T09:53:29.377Z,11.50
2018-02-19T09:55:57.506Z,10.83
2018-02-19T09:58:25.652Z,10.20
2018-02-19T10:00:53.785Z,12.40
2018-02-19T10:03:21.941Z,14.83
2018-02-19T10:05:50.841Z,10.87
2018-02-19T10:08:18.997Z,10.67
2018-02-19T10:10:47.905Z,10.70
2018-02-19T10:13:16.065Z,10.73
2018-02-19T10:15:44.198Z,11.00
2018-02-19T10:18:12.342Z,10.00
2018-02-19T10:20:40.469Z,9.20
2018-02-19T10:23:08.618Z,10.60
2018-02-19T10:25:40.141Z,10.87
2018-02-19T10:28:08.286Z,9.57
2018-02-19T10:30:36.409Z,9.77
2018-02-19T10:33:04.562Z,10.03
2018-02-19T10:35:33.450Z,9.53
2018-02-19T10:38:01.601Z,9.77
2018-02-19T10:40:29.729Z,9.57
2018-02-19T10:42:58.153Z,10.13
2018-02-19T10:45:26.293Z,10.07
2018-02-19T10:47:54.425Z,9.30
2018-02-19T10:50:22.568Z,10.53
2018-02-19T10:52:51.465Z,9.13
2018-02-19T10:55:19.633Z,9.87
2018-02-19T10:57:47.801Z,9.63
2018-02-19T11:00:17.463Z,9.20
2018-02-19T11:02:45.589Z,9.33
2018-02-19T11:05:13.729Z,9.60
2018-02-19T11:07:41.859Z,9.63
2018-02-19T11:10:10.009Z,9.03
2018-02-19T11:12:38.141Z,9.23
2018-02-19T11:15:06.297Z,8.93
2018-02-19T11:17:34.421Z,9.00
2018-02-19T11:20:03.329Z,9.43
2018-02-19T11:22:31.461Z,9.57
2018-02-19T11:24:59.608Z,11.10
2018-02-19T11:27:27.733Z,10.13
2018-02-19T11:29:55.885Z,10.77
2018-02-19T11:32:24.901Z,11.67
2018-02-19T11:34:53.146Z,11.00
2018-02-19T11:37:21.343Z,10.73
2018-02-19T11:39:49.550Z,10.03
2018-02-19T11:42:18.549Z,9.50
2018-02-19T11:44:46.684Z,9.80
2018-02-19T11:47:15.608Z,9.63
2018-02-19T11:49:43.736Z,8.77
2018-02-19T11:52:12.674Z,8.97
2018-02-19T11:54:40.869Z,9.00
2018-02-19T11:57:08.981Z,9.27
2018-02-19T11:59:37.133Z,8.37
2018-02-19T12:02:05.286Z,8.30
2018-02-19T12:04:33.510Z,8.67
2018-02-19T12:07:01.698Z,8.43
2018-02-19T12:09:29.834Z,9.57
2018-02-19T12:11:58.753Z,9.37
2018-02-19T12:14:26.885Z,9.23
2018-02-19T12:16:55.029Z,10.13
2018-02-19T12:19:23.160Z,9.13
2018-02-19T12:21:52.145Z,9.70
2018-02-19T12:24:21.045Z,9.90
2018-02-19T12:26:49.192Z,10.97
2018-02-19T12:29:17.318Z,9.07
2018-02-19T12:31:45.480Z,9.90
2018-02-19T12:34:13.610Z,9.30
2018-02-19T12:36:41.738Z,9.53
2018-02-19T12:39:09.890Z,10.33
2018-02-19T12:41:38.073Z,9.70
2018-02-19T12:44:06.228Z,9.67
2018-02-19T12:46:34.357Z,10.30
2018-02-19T12:49:02.502Z,11.13
2018-02-19T12:51:30.637Z,10.00
2018-02-19T12:53:59.553Z,10.80
2018-02-19T12:56:27.689Z,10.57
2018-02-19T12:58:55.836Z,11.13
2018-02-19T13:01:23.961Z,10.10
2018-02-19T13:03:52.109Z,11.87
2018-02-19T13:06:21.013Z,11.00
2018-02-19T13:08:49.966Z,10.10
2018-02-19T13:11:18.086Z,11.80
2018-02-19T13:13:46.238Z,10.77
2018-02-19T13:16:14.364Z,9.97
2018-02-19T13:18:42.505Z,9.90
2018-02-19T13:21:10.693Z,10.33
2018-02-19T13:23:38.793Z,10.07
2018-02-19T13:26:06.945Z,10.87
2018-02-19T13:28:35.166Z,11.07
2018-02-19T13:31:03.252Z,10.83
2018-02-19T13:33:32.153Z,10.87
2018-02-19T13:36:01.077Z,11.90
2018-02-19T13:38:29.210Z,10.33
2018-02-19T13:40:57.377Z,10.83
2018-02-19T13:46:27.174Z,11.47
2018-02-19T13:48:55.296Z,10.37
2018-02-19T13:51:24.210Z,9.93
2018-02-19T13:53:52.356Z,11.13
2018-02-19T13:56:21.288Z,12.53
2018-02-19T13:58:49.416Z,10.93
2018-02-19T14:01:18.338Z,11.33
2018-02-19T14:03:46.467Z,11.60
2018-02-19T14:06:14.697Z,10.83
2018-02-19T14:08:42.833Z,11.23
2018-02-19T14:11:11.755Z,10.23
2018-02-19T14:13:39.888Z,12.03
2018-02-19T14:16:08.796Z,11.10
2018-02-19T14:18:36.952Z,12.63
2018-02-19T14:21:05.870Z,11.47
2018-02-19T14:23:33.996Z,10.97
2018-02-19T14:26:02.137Z,11.40
2018-02-19T14:28:30.289Z,11.57
2018-02-19T14:30:58.417Z,16.40
2018-02-19T14:33:26.565Z,12.87
2018-02-19T14:35:54.701Z,11.03
2018-02-19T14:38:22.853Z,11.50
2018-02-19T14:40:51.766Z,10.60
2018-02-19T14:43:19.933Z,11.87
2018-02-19T14:45:48.063Z,11.60
2018-02-19T14:48:16.209Z,13.13
2018-02-19T14:50:44.336Z,13.07
2018-02-19T14:53:13.273Z,13.93
2018-02-19T14:55:41.405Z,12.17
2018-02-19T14:58:10.323Z,11.67
2018-02-19T15:00:38.456Z,11.50
2018-02-19T15:03:06.609Z,13.70
2018-02-19T15:05:34.740Z,12.77
2018-02-19T15:08:03.653Z,12.47
2018-02-19T15:10:31.797Z,12.07
2018-02-19T15:12:59.945Z,12.03
2018-02-19T15:15:28.840Z,11.13
2018-02-19T15:17:57.750Z,10.70
2018-02-19T15:20:25.876Z,11.40
2018-02-19T15:22:54.036Z,11.80
2018-02-19T15:25:22.226Z,11.50
2018-02-19T15:27:50.346Z,12.47
2018-02-19T15:30:18.469Z,11.83
2018-02-19T15:32:46.612Z,12.00
2018-02-19T15:35:14.731Z,12.07
2018-02-19T15:37:43.641Z,12.53
2018-02-19T15:40:11.781Z,11.30
2018-02-19T15:42:39.920Z,11.70
2018-02-19T15:45:08.065Z,11.47
2018-02-19T15:47:36.221Z,11.97
2018-02-19T15:50:05.161Z,11.13
2018-02-19T15:52:33.297Z,11.57
2018-02-19T15:55:01.455Z,11.03
2018-02-19T15:57:29.635Z,10.97
2018-02-19T15:59:58.613Z,11.73
2018-02-19T16:02:27.513Z,11.47
2018-02-19T16:04:56.433Z,12.50
2018-02-19T16:07:24.576Z,11.13
2018-02-19T16:09:53.489Z,11.17
2018-02-19T16:12:21.632Z,11.90
2018-02-19T16:14:49.793Z,10.90
2018-02-19T16:17:17.931Z,11.90
2018-02-19T16:19:46.108Z,11.93
2018-02-19T16:22:14.241Z,11.50
2018-02-19T16:24:43.132Z,12.83
2018-02-19T16:27:11.281Z,11.83
2018-02-19T16:29:39.529Z,12.30
2018-02-19T16:32:07.698Z,11.73
2018-02-19T16:34:35.825Z,12.23
2018-02-19T16:37:04.737Z,11.97
2018-02-19T16:39:32.865Z,11.47
2018-02-19T16:42:01.011Z,12.90
2018-02-19T16:44:29.155Z,12.10
2018-02-19T16:46:58.265Z,12.37
2018-02-19T16:49:26.397Z,12.20
2018-02-19T16:51:55.310Z,12.63
2018-02-19T16:54:23.436Z,13.43
2018-02-19T16:56:51.598Z,12.63
2018-02-19T16:59:19.732Z,13.27
2018-02-19T17:01:47.891Z,13.47
2018-02-19T17:04:16.025Z,13.50
2018-02-19T17:06:44.177Z,14.37
2018-02-19T17:09:12.313Z,16.03
2018-02-19T17:11:40.444Z,17.30
2018-02-19T17:14:09.373Z,16.30
2018-02-19T17:16:37.509Z,15.77
2018-02-19T17:19:05.653Z,16.37
2018-02-19T17:21:33.812Z,18.80
2018-02-19T17:24:01.966Z,23.13
2018-02-19T17:26:30.113Z,20.30
2018-02-19T17:28:59.021Z,18.40
2018-02-19T17:31:27.925Z,18.87
2018-02-19T17:33:56.096Z,17.63
2018-02-19T17:36:24.238Z,15.10
2018-02-19T17:38:53.165Z,16.43
2018-02-19T17:41:21.301Z,16.67
2018-02-19T17:43:50.225Z,16.63
2018-02-19T17:46:18.363Z,14.80
2018-02-19T17:48:47.284Z,14.57
2018-02-19T17:51:15.424Z,14.77
2018-02-19T17:53:43.584Z,14.80
2018-02-19T17:56:11.729Z,15.47
2018-02-19T17:58:39.886Z,14.73
2018-02-19T18:01:08.033Z,14.50
2018-02-19T18:03:36.961Z,15.83
2018-02-19T18:06:05.097Z,13.33
2018-02-19T18:08:34.029Z,14.37
2018-02-19T18:11:02.164Z,12.30
2018-02-19T18:13:31.069Z,13.20
2018-02-19T18:15:59.239Z,13.73
2018-02-19T18:18:27.382Z,13.40
2018-02-19T18:20:55.537Z,14.00
2018-02-19T18:23:23.673Z,14.33
2018-02-19T18:25:51.837Z,14.37
2018-02-19T18:28:19.972Z,13.53
2018-02-19T18:30:48.161Z,14.20
2018-02-19T18:33:17.061Z,13.23
2018-02-19T18:35:45.981Z,13.73
2018-02-19T18:38:14.124Z,24.77
2018-02-19T18:40:43.050Z,16.73
2018-02-19T18:43:11.194Z,15.63
2018-02-19T18:45:39.489Z,16.07
2018-02-19T18:48:07.629Z,12.60
2018-02-19T18:50:35.793Z,13.30
2018-02-19T18:53:04.700Z,13.57
2018-02-19T18:55:32.899Z,12.60
2018-02-19T18:58:01.805Z,15.13
2018-02-19T19:00:29.950Z,15.17
2018-02-19T19:02:58.113Z,14.57
2018-02-19T19:05:27.021Z,13.93
2018-02-19T19:08:13.039Z,14.43
2018-02-19T19:10:53.829Z,14.80
2018-02-19T19:13:21.961Z,15.70
2018-02-19T19:15:50.110Z,16.90
2018-02-19T19:18:19.035Z,16.40
2018-02-19T19:20:47.176Z,15.87
2018-02-19T19:23:16.100Z,15.00
2018-02-19T19:25:44.237Z,14.67
2018-02-19T19:28:12.404Z,16.13
2018-02-19T19:30:41.308Z,14.83
2018-02-19T19:33:09.465Z,16.07
2018-02-19T19:35:38.372Z,15.77
2018-02-19T19:38:06.568Z,15.53
2018-02-19T19:40:34.722Z,15.40
2018-02-19T19:43:02.881Z,15.00
2018-02-19T19:45:31.785Z,16.47
2018-02-19T19:47:59.943Z,17.40
2018-02-19T19:50:28.844Z,26.83
2018-02-19T19:52:57.002Z,16.87
2018-02-19T19:55:25.904Z,17.17
2018-02-19T19:57:54.837Z,16.73
2018-02-19T20:00:22.969Z,16.43
2018-02-19T20:02:51.869Z,17.43
2018-02-19T20:05:20.037Z,16.90
2018-02-19T20:07:48.177Z,16.87
2018-02-19T20:10:16.357Z,16.33
2018-02-19T20:12:45.297Z,16.00
2018-02-19T20:15:13.444Z,16.13
2018-02-19T20:17:41.583Z,15.10
2018-02-19T20:20:09.788Z,17.47
2018-02-19T20:22:37.921Z,15.50
2018-02-19T20:25:06.149Z,15.07
2018-02-19T20:27:34.326Z,15.23
2018-02-19T20:30:02.499Z,16.30
2018-02-19T20:32:30.637Z,16.23
2018-02-19T20:34:58.805Z,15.83
2018-02-19T20:37:26.957Z,14.43
2018-02-19T20:39:55.117Z,15.17
2018-02-19T20:42:23.256Z,15.73
2018-02-19T20:44:51.416Z,15.10
2018-02-19T20:47:20.316Z,14.50
2018-02-19T20:49:48.542Z,13.63
2018-02-19T20:52:16.682Z,14.40
2018-02-19T20:54:44.845Z,14.20
2018-02-19T20:57:12.984Z,15.17
2018-02-19T20:59:41.152Z,14.93
2018-02-19T21:02:09.289Z,14.37
2018-02-19T21:04:37.430Z,15.57
2018-02-19T21:07:05.585Z,14.70
2018-02-19T21:09:34.489Z,14.70
2018-02-19T21:12:02.646Z,14.23
2018-02-19T21:14:31.569Z,14.13
2018-02-19T21:16:59.725Z,14.17
2018-02-19T21:19:28.629Z,15.37
2018-02-19T21:21:56.814Z,14.77
2018-02-19T21:24:24.965Z,15.33
2018-02-19T21:26:57.545Z,12.40
2018-02-19T21:29:25.692Z,14.10
2018-02-19T21:31:53.845Z,14.93
2018-02-19T21:34:21.988Z,15.30
2018-02-19T21:36:50.145Z,13.63
2018-02-19T21:39:18.281Z,14.20
2018-02-19T21:41:47.220Z,14.47
2018-02-19T21:44:15.352Z,15.47
2018-02-19T21:46:44.278Z,15.50
2018-02-19T21:49:12.412Z,16.53
2018-02-19T21:51:40.618Z,17.33
2018-02-19T21:54:08.785Z,17.77
2018-02-19T21:56:36.945Z,17.17
2018-02-19T21:59:05.848Z,18.70
2018-02-19T22:01:34.005Z,18.93
2018-02-19T22:04:02.936Z,18.87
2018-02-19T22:06:31.080Z,18.10
2018-02-19T22:09:00.022Z,19.43
2018-02-19T22:11:28.161Z,19.17
2018-02-19T22:13:56.358Z,17.73
2018-02-19T22:16:24.525Z,17.87
2018-02-19T22:18:52.681Z,19.87
2018-02-19T22:21:20.829Z,18.27
2018-02-19T22:23:49.761Z,16.47
2018-02-19T22:26:17.901Z,17.07
2018-02-19T22:28:46.824Z,17.07
2018-02-19T22:31:14.969Z,17.53
2018-02-19T22:33:43.125Z,16.53
2018-02-19T22:36:12.025Z,17.40
2018-02-19T22:38:40.944Z,16.50
2018-02-19T22:41:09.085Z,17.83
2018-02-19T22:43:37.241Z,17.90
2018-02-19T22:46:05.388Z,17.93
2018-02-19T22:48:33.535Z,17.73
2018-02-19T22:51:01.735Z,16.37
2018-02-19T22:53:29.872Z,17.57
2018-02-19T22:55:58.041Z,16.87
2018-02-19T22:58:26.260Z,17.97
2018-02-19T23:00:54.421Z,19.03
2018-02-19T23:03:22.556Z,19.27
2018-02-19T23:05:50.717Z,17.33
2018-02-19T23:08:19.616Z,19.43
2018-02-19T23:10:48.544Z,20.53
2018-02-19T23:13:16.686Z,20.83
2018-02-19T23:15:44.844Z,19.30
2018-02-19T23:18:13.752Z,20.10
2018-02-19T23:20:41.921Z,20.07
2018-02-19T23:23:10.066Z,21.90
2018-02-19T23:25:38.228Z,20.90
2018-02-19T23:28:06.365Z,20.90
2018-02-19T23:30:34.541Z,23.17
2018-02-19T23:33:02.673Z,22.23
2018-02-19T23:35:30.834Z,22.57
2018-02-19T23:37:58.974Z,23.33
2018-02-19T23:40:27.146Z,23.20
2018-02-19T23:42:55.280Z,23.80
2018-02-19T23:45:23.408Z,24.47
2018-02-19T23:47:51.557Z,24.20
2018-02-19T23:50:19.690Z,22.80
2018-02-19T23:52:48.628Z,22.93
2018-02-19T23:55:16.770Z,23.00
2018-02-19T23:57:44.925Z,24.23
